Погода Куркентна неделю

Республика Дагестан, Россия

20 - 26 июля
  • 20июля
    Сегодня
    +22°
    +34°
    Облачно с прояснениями
    ВремяПогодаТемператураВлажностьДавлениеВетер, м/сВероятность осадков
    00:00Ясно и безоблачно+21°C81 %707 мм1.3 м/с7 %
    03:00Практически безоблачно+21°C78 %706 мм1.5 м/с2 %
    06:00Небольшая облачность+23°C67 %706 мм1.3 м/с2 %
    09:00Практически безоблачно+31°C41 %707 мм2.1 м/с3 %
    12:00Облачно с прояснениями+33°C32 %707 мм3.1 м/с14 %
    15:00Облачно с прояснениями+32°C38 %707 мм3.7 м/с29 %
    18:00Облачно с прояснениями+28°C54 %706 мм2.2 м/с14 %
    21:00Облачно с прояснениями+26°C67 %707 мм0.2 м/с14 %
  • 21июля
    Воскресенье
    +18°
    +32°
    Ясно и безоблачно
    ВремяПогодаТемператураВлажностьДавлениеВетер, м/сВероятность осадков
    00:00Облачно с прояснениями+24°C68 %707 мм1.1 м/с28 %
    03:00Пасмурно, сплошная облачность+23°C84 %707 мм1.2 м/с49 %
    06:00Пасмурно, ливень+23°C86 %708 мм1.4 м/с58 %
    09:00Пасмурно, небольшой дождь+26°C55 %709 мм0.5 м/с61 %
    12:00Облачно с прояснениями+30°C35 %709 мм3.4 м/с44 %
    15:00Ясно и безоблачно+31°C31 %709 мм2.9 м/с27 %
    18:00Ясно и безоблачно+28°C45 %709 мм1.3 м/с7 %
    21:00Ясно и безоблачно+23°C65 %709 мм1.4 м/с2 %
  • 22июля
    Понедельник
    +20°
    +34°
    Ясно и безоблачно
    ВремяПогодаТемператураВлажностьДавлениеВетер, м/сВероятность осадков
    00:00Ясно и безоблачно+21°C69 %708 мм1.3 м/с2 %
    03:00Ясно и безоблачно+19°C68 %708 мм1.6 м/с2 %
    06:00Ясно и безоблачно+22°C59 %708 мм1.9 м/с2 %
    09:00Ясно и безоблачно+32°C34 %710 мм2.2 м/с2 %
    12:00Ясно и безоблачно+34°C34 %709 мм3.6 м/с2 %
    15:00Ясно и безоблачно+33°C35 %709 мм3.8 м/с7 %
    18:00Ясно и безоблачно+29°C46 %708 мм2.8 м/с4 %
    21:00Ясно и безоблачно+25°C65 %709 мм0.7 м/с2 %
  • 23июля
    Вторник
    +23°
    +35°
    Ясно и безоблачно
    ВремяПогодаТемператураВлажностьДавлениеВетер, м/сВероятность осадков
    00:00Ясно и безоблачно+23°C72 %707 мм1.2 м/с2 %
    03:00Ясно и безоблачно+22°C73 %707 мм1.3 м/с2 %
    06:00Ясно и безоблачно+24°C63 %707 мм1.1 м/с2 %
    09:00Ясно и безоблачно+32°C40 %708 мм2.3 м/с2 %
    12:00Ясно и безоблачно+35°C37 %707 мм3.3 м/с7 %
    15:00Ясно и безоблачно+35°C40 %706 мм3.5 м/с19 %
    18:00Ясно и безоблачно+31°C55 %706 мм2.5 м/с9 %
    21:00Ясно и безоблачно+26°C77 %706 мм0.5 м/с2 %
  • 24июля
    Среда
    +22°
    +32°
    Облачно с прояснениями, небольшой дождь
    ВремяПогодаТемператураВлажностьДавлениеВетер, м/сВероятность осадков
    00:00Ясно и безоблачно+24°C77 %704 мм1.1 м/с4 %
    03:00Ясно и безоблачно+24°C67 %704 мм1.7 м/с2 %
    06:00Ясно и безоблачно+25°C61 %705 мм0.8 м/с2 %
    09:00Ясно и безоблачно+30°C55 %705 мм2.6 м/с7 %
    12:00Небольшая облачность+32°C48 %705 мм3.3 м/с40 %
    15:00Облачно с прояснениями, небольшой дождь+31°C51 %705 мм2.6 м/с62 %
    18:00Небольшая облачность+28°C62 %704 мм2.8 м/с48 %
    21:00Облачно с прояснениями+25°C74 %705 мм0.9 м/с40 %
Мы используем cookies
Соглашаюсь